<?xml version="1.0" encoding="UTF-8"?>
<gpx creator="Wikiloc - https://www.wikiloc.com" version="1.1" xmlns="http://www.topografix.com/GPX/1/1" xmlns:xsi="http://www.w3.org/2001/XMLSchema-instance" xsi:schemaLocation="http://www.topografix.com/GPX/1/1 http://www.topografix.com/GPX/1/1/gpx.xsd">
  <wpt lat="38.148100" lon="-6.648280">
    <ele>539.0</ele>
    <time>2010-01-18T12:53:42Z</time>
    <name>PUENTE</name>
    <cmt>15-ENE-10 12:56:39</cmt>
    <desc>15-ENE-10 12:56:39</desc>
  </wpt>
  <wpt lat="38.131438" lon="-6.639063">
    <ele>547.0</ele>
    <time>2010-01-18T12:53:42Z</time>
    <name>EUCALIPTOS</name>
    <cmt>15-ENE-10 13:34:11</cmt>
    <desc>15-ENE-10 13:34:11</desc>
  </wpt>
  <wpt lat="38.137850" lon="-6.639750">
    <ele>567.0</ele>
    <time>2010-01-18T12:53:42Z</time>
    <name>POZO</name>
    <cmt>15-ENE-10 13:19:31</cmt>
    <desc>15-ENE-10 13:19:31</desc>
  </wpt>
  <wpt lat="38.126900" lon="-6.634350">
    <ele>538.0</ele>
    <time>2010-01-18T12:53:42Z</time>
    <name>PUENTE MORIANO</name>
    <cmt>15-ENE-10 14:03:18</cmt>
    <desc>15-ENE-10 14:03:18</desc>
  </wpt>
  <wpt lat="38.149203" lon="-6.649176">
    <ele>0.0</ele>
    <time>2010-01-19T22:56:05Z</time>
    <name>DESVIO PR CEGON</name>
    <cmt></cmt>
    <desc></desc>
  </wpt>
  <wpt lat="38.163274" lon="-6.654278">
    <ele>0.0</ele>
    <time>2010-01-20T00:35:43Z</time>
    <name>PANELES DE INICIO</name>
    <cmt></cmt>
    <desc></desc>
  </wpt>
  <trk>
    <name>PR-BA 113 'El Moriano' (Fregenal de la Sierra)</name>
    <cmt>Más información en www.fexme.com</cmt>
    <desc>Más información en www.fexme.com</desc>
    <trkseg>
      <trkpt lat="38.163120" lon="-6.654160">
        <ele>574.0</ele>
        <time>2010-01-15T12:10:31Z</time>
      </trkpt>
      <trkpt lat="38.162970" lon="-6.654170">
        <ele>572.0</ele>
        <time>2010-01-15T12:11:25Z</time>
      </trkpt>
      <trkpt lat="38.163040" lon="-6.654190">
        <ele>572.0</ele>
        <time>2010-01-15T12:11:52Z</time>
      </trkpt>
      <trkpt lat="38.163070" lon="-6.654170">
        <ele>571.0</ele>
        <time>2010-01-15T12:12:08Z</time>
      </trkpt>
      <trkpt lat="38.163060" lon="-6.654240">
        <ele>570.2</ele>
        <time>2010-01-15T12:12:39Z</time>
      </trkpt>
      <trkpt lat="38.163060" lon="-6.654220">
        <ele>568.8</ele>
        <time>2010-01-15T12:12:54Z</time>
      </trkpt>
      <trkpt lat="38.162990" lon="-6.654220">
        <ele>568.3</ele>
        <time>2010-01-15T12:13:06Z</time>
      </trkpt>
      <trkpt lat="38.162980" lon="-6.654230">
        <ele>568.8</ele>
        <time>2010-01-15T12:13:09Z</time>
      </trkpt>
      <trkpt lat="38.162810" lon="-6.654200">
        <ele>568.8</ele>
        <time>2010-01-15T12:13:26Z</time>
      </trkpt>
      <trkpt lat="38.162640" lon="-6.654180">
        <ele>568.8</ele>
        <time>2010-01-15T12:13:45Z</time>
      </trkpt>
      <trkpt lat="38.162490" lon="-6.654170">
        <ele>568.3</ele>
        <time>2010-01-15T12:14:04Z</time>
      </trkpt>
      <trkpt lat="38.162510" lon="-6.654170">
        <ele>565.9</ele>
        <time>2010-01-15T12:14:24Z</time>
      </trkpt>
      <trkpt lat="38.162370" lon="-6.654160">
        <ele>566.8</ele>
        <time>2010-01-15T12:14:42Z</time>
      </trkpt>
      <trkpt lat="38.162150" lon="-6.654160">
        <ele>565.9</ele>
        <time>2010-01-15T12:15:06Z</time>
      </trkpt>
      <trkpt lat="38.161930" lon="-6.654150">
        <ele>565.9</ele>
        <time>2010-01-15T12:15:27Z</time>
      </trkpt>
      <trkpt lat="38.161670" lon="-6.654140">
        <ele>564.9</ele>
        <time>2010-01-15T12:15:48Z</time>
      </trkpt>
      <trkpt lat="38.161510" lon="-6.654150">
        <ele>565.9</ele>
        <time>2010-01-15T12:16:04Z</time>
      </trkpt>
      <trkpt lat="38.161510" lon="-6.654150">
        <ele>565.4</ele>
        <time>2010-01-15T12:16:06Z</time>
      </trkpt>
      <trkpt lat="38.161330" lon="-6.654130">
        <ele>564.4</ele>
        <time>2010-01-15T12:16:22Z</time>
      </trkpt>
      <trkpt lat="38.161150" lon="-6.654080">
        <ele>563.9</ele>
        <time>2010-01-15T12:16:41Z</time>
      </trkpt>
      <trkpt lat="38.161130" lon="-6.654090">
        <ele>563.5</ele>
        <time>2010-01-15T12:16:42Z</time>
      </trkpt>
      <trkpt lat="38.160930" lon="-6.654050">
        <ele>564.4</ele>
        <time>2010-01-15T12:17:01Z</time>
      </trkpt>
      <trkpt lat="38.160670" lon="-6.654030">
        <ele>563.9</ele>
        <time>2010-01-15T12:17:24Z</time>
      </trkpt>
      <trkpt lat="38.160510" lon="-6.654010">
        <ele>563.5</ele>
        <time>2010-01-15T12:17:40Z</time>
      </trkpt>
      <trkpt lat="38.160310" lon="-6.653990">
        <ele>564.9</ele>
        <time>2010-01-15T12:17:58Z</time>
      </trkpt>
      <trkpt lat="38.160060" lon="-6.653960">
        <ele>564.9</ele>
        <time>2010-01-15T12:18:18Z</time>
      </trkpt>
      <trkpt lat="38.159780" lon="-6.653950">
        <ele>564.4</ele>
        <time>2010-01-15T12:18:41Z</time>
      </trkpt>
      <trkpt lat="38.159600" lon="-6.653940">
        <ele>564.4</ele>
        <time>2010-01-15T12:18:57Z</time>
      </trkpt>
      <trkpt lat="38.159510" lon="-6.653950">
        <ele>564.4</ele>
        <time>2010-01-15T12:19:12Z</time>
      </trkpt>
      <trkpt lat="38.159210" lon="-6.653850">
        <ele>562.0</ele>
        <time>2010-01-15T12:19:36Z</time>
      </trkpt>
      <trkpt lat="38.158910" lon="-6.653710">
        <ele>563.0</ele>
        <time>2010-01-15T12:20:02Z</time>
      </trkpt>
      <trkpt lat="38.158670" lon="-6.653570">
        <ele>566.8</ele>
        <time>2010-01-15T12:20:22Z</time>
      </trkpt>
      <trkpt lat="38.158480" lon="-6.653480">
        <ele>568.3</ele>
        <time>2010-01-15T12:20:41Z</time>
      </trkpt>
      <trkpt lat="38.158480" lon="-6.653520">
        <ele>567.8</ele>
        <time>2010-01-15T12:20:55Z</time>
      </trkpt>
      <trkpt lat="38.158490" lon="-6.653520">
        <ele>567.3</ele>
        <time>2010-01-15T12:21:53Z</time>
      </trkpt>
      <trkpt lat="38.158500" lon="-6.653510">
        <ele>567.3</ele>
        <time>2010-01-15T12:22:20Z</time>
      </trkpt>
      <trkpt lat="38.158510" lon="-6.653530">
        <ele>568.3</ele>
        <time>2010-01-15T12:22:37Z</time>
      </trkpt>
      <trkpt lat="38.158490" lon="-6.653500">
        <ele>566.8</ele>
        <time>2010-01-15T12:23:04Z</time>
      </trkpt>
      <trkpt lat="38.158520" lon="-6.653510">
        <ele>564.9</ele>
        <time>2010-01-15T12:23:29Z</time>
      </trkpt>
      <trkpt lat="38.158580" lon="-6.653530">
        <ele>563.5</ele>
        <time>2010-01-15T12:23:45Z</time>
      </trkpt>
      <trkpt lat="38.158540" lon="-6.653530">
        <ele>571.7</ele>
        <time>2010-01-15T12:25:17Z</time>
      </trkpt>
      <trkpt lat="38.158510" lon="-6.653490">
        <ele>571.7</ele>
        <time>2010-01-15T12:25:35Z</time>
      </trkpt>
      <trkpt lat="38.158380" lon="-6.653410">
        <ele>571.7</ele>
        <time>2010-01-15T12:25:52Z</time>
      </trkpt>
      <trkpt lat="38.158200" lon="-6.653280">
        <ele>571.7</ele>
        <time>2010-01-15T12:26:12Z</time>
      </trkpt>
      <trkpt lat="38.158100" lon="-6.653240">
        <ele>572.1</ele>
        <time>2010-01-15T12:26:27Z</time>
      </trkpt>
      <trkpt lat="38.158110" lon="-6.653220">
        <ele>570.2</ele>
        <time>2010-01-15T12:26:47Z</time>
      </trkpt>
      <trkpt lat="38.158030" lon="-6.653180">
        <ele>569.7</ele>
        <time>2010-01-15T12:27:03Z</time>
      </trkpt>
      <trkpt lat="38.157920" lon="-6.653100">
        <ele>569.7</ele>
        <time>2010-01-15T12:27:18Z</time>
      </trkpt>
      <trkpt lat="38.157740" lon="-6.653000">
        <ele>568.8</ele>
        <time>2010-01-15T12:27:37Z</time>
      </trkpt>
      <trkpt lat="38.157580" lon="-6.652860">
        <ele>570.2</ele>
        <time>2010-01-15T12:27:57Z</time>
      </trkpt>
      <trkpt lat="38.157410" lon="-6.652780">
        <ele>570.2</ele>
        <time>2010-01-15T12:28:12Z</time>
      </trkpt>
      <trkpt lat="38.157170" lon="-6.652670">
        <ele>570.2</ele>
        <time>2010-01-15T12:28:35Z</time>
      </trkpt>
      <trkpt lat="38.156950" lon="-6.652570">
        <ele>570.7</ele>
        <time>2010-01-15T12:28:55Z</time>
      </trkpt>
      <trkpt lat="38.156760" lon="-6.652470">
        <ele>570.2</ele>
        <time>2010-01-15T12:29:11Z</time>
      </trkpt>
      <trkpt lat="38.156490" lon="-6.652350">
        <ele>568.8</ele>
        <time>2010-01-15T12:29:34Z</time>
      </trkpt>
      <trkpt lat="38.156210" lon="-6.652230">
        <ele>569.2</ele>
        <time>2010-01-15T12:29:57Z</time>
      </trkpt>
      <trkpt lat="38.155930" lon="-6.652100">
        <ele>567.3</ele>
        <time>2010-01-15T12:30:20Z</time>
      </trkpt>
      <trkpt lat="38.155700" lon="-6.651990">
        <ele>565.9</ele>
        <time>2010-01-15T12:30:41Z</time>
      </trkpt>
      <trkpt lat="38.155460" lon="-6.651880">
        <ele>567.3</ele>
        <time>2010-01-15T12:31:02Z</time>
      </trkpt>
      <trkpt lat="38.155210" lon="-6.651760">
        <ele>569.2</ele>
        <time>2010-01-15T12:31:25Z</time>
      </trkpt>
      <trkpt lat="38.154900" lon="-6.651600">
        <ele>566.8</ele>
        <time>2010-01-15T12:31:49Z</time>
      </trkpt>
      <trkpt lat="38.154670" lon="-6.651510">
        <ele>566.3</ele>
        <time>2010-01-15T12:32:10Z</time>
      </trkpt>
      <trkpt lat="38.154450" lon="-6.651450">
        <ele>566.3</ele>
        <time>2010-01-15T12:32:27Z</time>
      </trkpt>
      <trkpt lat="38.154290" lon="-6.651410">
        <ele>566.3</ele>
        <time>2010-01-15T12:32:46Z</time>
      </trkpt>
      <trkpt lat="38.154250" lon="-6.651400">
        <ele>565.9</ele>
        <time>2010-01-15T12:33:02Z</time>
      </trkpt>
      <trkpt lat="38.154210" lon="-6.651370">
        <ele>566.3</ele>
        <time>2010-01-15T12:33:14Z</time>
      </trkpt>
      <trkpt lat="38.154210" lon="-6.651370">
        <ele>568.8</ele>
        <time>2010-01-15T12:33:40Z</time>
      </trkpt>
      <trkpt lat="38.154210" lon="-6.651400">
        <ele>568.3</ele>
        <time>2010-01-15T12:34:10Z</time>
      </trkpt>
      <trkpt lat="38.154180" lon="-6.651380">
        <ele>565.9</ele>
        <time>2010-01-15T12:34:57Z</time>
      </trkpt>
      <trkpt lat="38.154120" lon="-6.651360">
        <ele>567.3</ele>
        <time>2010-01-15T12:35:19Z</time>
      </trkpt>
      <trkpt lat="38.154080" lon="-6.651330">
        <ele>567.3</ele>
        <time>2010-01-15T12:35:36Z</time>
      </trkpt>
      <trkpt lat="38.154090" lon="-6.651340">
        <ele>566.8</ele>
        <time>2010-01-15T12:36:18Z</time>
      </trkpt>
      <trkpt lat="38.154100" lon="-6.651320">
        <ele>565.4</ele>
        <time>2010-01-15T12:36:49Z</time>
      </trkpt>
      <trkpt lat="38.154110" lon="-6.651320">
        <ele>567.8</ele>
        <time>2010-01-15T12:37:16Z</time>
      </trkpt>
      <trkpt lat="38.154070" lon="-6.651370">
        <ele>572.6</ele>
        <time>2010-01-15T12:37:35Z</time>
      </trkpt>
      <trkpt lat="38.153900" lon="-6.651340">
        <ele>569.7</ele>
        <time>2010-01-15T12:37:51Z</time>
      </trkpt>
      <trkpt lat="38.153850" lon="-6.651320">
        <ele>568.3</ele>
        <time>2010-01-15T12:38:06Z</time>
      </trkpt>
      <trkpt lat="38.153800" lon="-6.651300">
        <ele>571.2</ele>
        <time>2010-01-15T12:38:33Z</time>
      </trkpt>
      <trkpt lat="38.153620" lon="-6.651340">
        <ele>570.7</ele>
        <time>2010-01-15T12:38:52Z</time>
      </trkpt>
      <trkpt lat="38.153440" lon="-6.651290">
        <ele>567.8</ele>
        <time>2010-01-15T12:39:12Z</time>
      </trkpt>
      <trkpt lat="38.153380" lon="-6.651280">
        <ele>567.3</ele>
        <time>2010-01-15T12:39:19Z</time>
      </trkpt>
      <trkpt lat="38.153220" lon="-6.651140">
        <ele>565.4</ele>
        <time>2010-01-15T12:39:36Z</time>
      </trkpt>
      <trkpt lat="38.153100" lon="-6.651010">
        <ele>563.5</ele>
        <time>2010-01-15T12:39:55Z</time>
      </trkpt>
      <trkpt lat="38.153000" lon="-6.650900">
        <ele>561.1</ele>
        <time>2010-01-15T12:40:21Z</time>
      </trkpt>
      <trkpt lat="38.152720" lon="-6.650690">
        <ele>556.7</ele>
        <time>2010-01-15T12:40:45Z</time>
      </trkpt>
      <trkpt lat="38.152660" lon="-6.650660">
        <ele>555.8</ele>
        <time>2010-01-15T12:40:52Z</time>
      </trkpt>
      <trkpt lat="38.152470" lon="-6.650520">
        <ele>552.9</ele>
        <time>2010-01-15T12:41:10Z</time>
      </trkpt>
      <trkpt lat="38.152200" lon="-6.650330">
        <ele>551.4</ele>
        <time>2010-01-15T12:41:37Z</time>
      </trkpt>
      <trkpt lat="38.151950" lon="-6.650190">
        <ele>549.5</ele>
        <time>2010-01-15T12:42:00Z</time>
      </trkpt>
      <trkpt lat="38.151950" lon="-6.650180">
        <ele>550.0</ele>
        <time>2010-01-15T12:42:18Z</time>
      </trkpt>
      <trkpt lat="38.151950" lon="-6.650180">
        <ele>546.7</ele>
        <time>2010-01-15T12:42:59Z</time>
      </trkpt>
      <trkpt lat="38.151970" lon="-6.650170">
        <ele>547.1</ele>
        <time>2010-01-15T12:43:27Z</time>
      </trkpt>
      <trkpt lat="38.151950" lon="-6.650160">
        <ele>548.1</ele>
        <time>2010-01-15T12:43:46Z</time>
      </trkpt>
      <trkpt lat="38.151970" lon="-6.650180">
        <ele>551.4</ele>
        <time>2010-01-15T12:44:13Z</time>
      </trkpt>
      <trkpt lat="38.151840" lon="-6.650180">
        <ele>545.7</ele>
        <time>2010-01-15T12:44:55Z</time>
      </trkpt>
      <trkpt lat="38.151780" lon="-6.650140">
        <ele>547.1</ele>
        <time>2010-01-15T12:45:03Z</time>
      </trkpt>
      <trkpt lat="38.151620" lon="-6.650050">
        <ele>547.6</ele>
        <time>2010-01-15T12:45:22Z</time>
      </trkpt>
      <trkpt lat="38.151440" lon="-6.650020">
        <ele>547.1</ele>
        <time>2010-01-15T12:45:38Z</time>
      </trkpt>
      <trkpt lat="38.151270" lon="-6.649970">
        <ele>547.6</ele>
        <time>2010-01-15T12:45:56Z</time>
      </trkpt>
      <trkpt lat="38.151160" lon="-6.649900">
        <ele>547.1</ele>
        <time>2010-01-15T12:46:09Z</time>
      </trkpt>
      <trkpt lat="38.150980" lon="-6.649860">
        <ele>544.7</ele>
        <time>2010-01-15T12:46:30Z</time>
      </trkpt>
      <trkpt lat="38.150820" lon="-6.649820">
        <ele>545.2</ele>
        <time>2010-01-15T12:46:50Z</time>
      </trkpt>
      <trkpt lat="38.150800" lon="-6.649820">
        <ele>545.2</ele>
        <time>2010-01-15T12:46:53Z</time>
      </trkpt>
      <trkpt lat="38.150770" lon="-6.649810">
        <ele>545.2</ele>
        <time>2010-01-15T12:46:55Z</time>
      </trkpt>
      <trkpt lat="38.150690" lon="-6.649810">
        <ele>545.2</ele>
        <time>2010-01-15T12:47:02Z</time>
      </trkpt>
      <trkpt lat="38.150420" lon="-6.649730">
        <ele>544.7</ele>
        <time>2010-01-15T12:47:25Z</time>
      </trkpt>
      <trkpt lat="38.150150" lon="-6.649650">
        <ele>544.3</ele>
        <time>2010-01-15T12:47:49Z</time>
      </trkpt>
      <trkpt lat="38.149910" lon="-6.649540">
        <ele>544.7</ele>
        <time>2010-01-15T12:48:11Z</time>
      </trkpt>
      <trkpt lat="38.149670" lon="-6.649400">
        <ele>546.2</ele>
        <time>2010-01-15T12:48:34Z</time>
      </trkpt>
      <trkpt lat="38.149490" lon="-6.649260">
        <ele>546.2</ele>
        <time>2010-01-15T12:48:54Z</time>
      </trkpt>
      <trkpt lat="38.149320" lon="-6.649100">
        <ele>544.7</ele>
        <time>2010-01-15T12:49:16Z</time>
      </trkpt>
      <trkpt lat="38.149320" lon="-6.649100">
        <ele>545.7</ele>
        <time>2010-01-15T12:49:45Z</time>
      </trkpt>
      <trkpt lat="38.149300" lon="-6.649080">
        <ele>545.2</ele>
        <time>2010-01-15T12:49:55Z</time>
      </trkpt>
      <trkpt lat="38.149360" lon="-6.649130">
        <ele>548.6</ele>
        <time>2010-01-15T12:51:44Z</time>
      </trkpt>
      <trkpt lat="38.149340" lon="-6.649090">
        <ele>547.6</ele>
        <time>2010-01-15T12:52:03Z</time>
      </trkpt>
      <trkpt lat="38.149340" lon="-6.649120">
        <ele>544.7</ele>
        <time>2010-01-15T12:52:15Z</time>
      </trkpt>
      <trkpt lat="38.149380" lon="-6.649120">
        <ele>545.7</ele>
        <time>2010-01-15T12:52:45Z</time>
      </trkpt>
      <trkpt lat="38.149410" lon="-6.649140">
        <ele>545.2</ele>
        <time>2010-01-15T12:53:01Z</time>
      </trkpt>
      <trkpt lat="38.149400" lon="-6.649140">
        <ele>544.7</ele>
        <time>2010-01-15T12:53:13Z</time>
      </trkpt>
      <trkpt lat="38.149150" lon="-6.648930">
        <ele>543.3</ele>
        <time>2010-01-15T12:53:38Z</time>
      </trkpt>
      <trkpt lat="38.149040" lon="-6.648840">
        <ele>542.3</ele>
        <time>2010-01-15T12:54:22Z</time>
      </trkpt>
      <trkpt lat="38.149040" lon="-6.648810">
        <ele>542.3</ele>
        <time>2010-01-15T12:54:23Z</time>
      </trkpt>
      <trkpt lat="38.149010" lon="-6.648790">
        <ele>541.8</ele>
        <time>2010-01-15T12:54:27Z</time>
      </trkpt>
      <trkpt lat="38.148860" lon="-6.648660">
        <ele>540.4</ele>
        <time>2010-01-15T12:54:45Z</time>
      </trkpt>
      <trkpt lat="38.148650" lon="-6.648500">
        <ele>538.5</ele>
        <time>2010-01-15T12:55:07Z</time>
      </trkpt>
      <trkpt lat="38.148410" lon="-6.648360">
        <ele>536.1</ele>
        <time>2010-01-15T12:55:28Z</time>
      </trkpt>
      <trkpt lat="38.148180" lon="-6.648320">
        <ele>536.1</ele>
        <time>2010-01-15T12:55:50Z</time>
      </trkpt>
      <trkpt lat="38.148130" lon="-6.648340">
        <ele>536.1</ele>
        <time>2010-01-15T12:56:05Z</time>
      </trkpt>
      <trkpt lat="38.148110" lon="-6.648320">
        <ele>537.0</ele>
        <time>2010-01-15T12:56:24Z</time>
      </trkpt>
      <trkpt lat="38.148100" lon="-6.648280">
        <ele>538.9</ele>
        <time>2010-01-15T12:56:38Z</time>
      </trkpt>
      <trkpt lat="38.148050" lon="-6.648250">
        <ele>538.9</ele>
        <time>2010-01-15T12:56:45Z</time>
      </trkpt>
      <trkpt lat="38.148000" lon="-6.648220">
        <ele>538.5</ele>
        <time>2010-01-15T12:56:49Z</time>
      </trkpt>
      <trkpt lat="38.147880" lon="-6.648010">
        <ele>538.0</ele>
        <time>2010-01-15T12:57:09Z</time>
      </trkpt>
      <trkpt lat="38.147770" lon="-6.647780">
        <ele>538.5</ele>
        <time>2010-01-15T12:57:28Z</time>
      </trkpt>
      <trkpt lat="38.147600" lon="-6.647560">
        <ele>538.9</ele>
        <time>2010-01-15T12:57:50Z</time>
      </trkpt>
      <trkpt lat="38.147410" lon="-6.647350">
        <ele>540.4</ele>
        <time>2010-01-15T12:58:13Z</time>
      </trkpt>
      <trkpt lat="38.147230" lon="-6.647120">
        <ele>539.9</ele>
        <time>2010-01-15T12:58:33Z</time>
      </trkpt>
      <trkpt lat="38.147180" lon="-6.647100">
        <ele>540.4</ele>
        <time>2010-01-15T12:58:48Z</time>
      </trkpt>
      <trkpt lat="38.147190" lon="-6.647100">
        <ele>540.4</ele>
        <time>2010-01-15T12:59:02Z</time>
      </trkpt>
      <trkpt lat="38.147070" lon="-6.646930">
        <ele>541.4</ele>
        <time>2010-01-15T12:59:19Z</time>
      </trkpt>
      <trkpt lat="38.146910" lon="-6.646740">
        <ele>543.8</ele>
        <time>2010-01-15T12:59:38Z</time>
      </trkpt>
      <trkpt lat="38.146710" lon="-6.646500">
        <ele>545.7</ele>
        <time>2010-01-15T13:00:00Z</time>
      </trkpt>
      <trkpt lat="38.146670" lon="-6.646500">
        <ele>545.2</ele>
        <time>2010-01-15T13:00:13Z</time>
      </trkpt>
      <trkpt lat="38.146650" lon="-6.646500">
        <ele>545.7</ele>
        <time>2010-01-15T13:00:28Z</time>
      </trkpt>
      <trkpt lat="38.146590" lon="-6.646340">
        <ele>548.1</ele>
        <time>2010-01-15T13:00:40Z</time>
      </trkpt>
      <trkpt lat="38.146420" lon="-6.646100">
        <ele>549.5</ele>
        <time>2010-01-15T13:01:02Z</time>
      </trkpt>
      <trkpt lat="38.146250" lon="-6.645890">
        <ele>551.4</ele>
        <time>2010-01-15T13:01:22Z</time>
      </trkpt>
      <trkpt lat="38.146080" lon="-6.645660">
        <ele>552.4</ele>
        <time>2010-01-15T13:01:42Z</time>
      </trkpt>
      <trkpt lat="38.145890" lon="-6.645460">
        <ele>551.9</ele>
        <time>2010-01-15T13:02:02Z</time>
      </trkpt>
      <trkpt lat="38.145860" lon="-6.645500">
        <ele>554.3</ele>
        <time>2010-01-15T13:02:16Z</time>
      </trkpt>
      <trkpt lat="38.145770" lon="-6.645350">
        <ele>554.8</ele>
        <time>2010-01-15T13:02:50Z</time>
      </trkpt>
      <trkpt lat="38.145590" lon="-6.645150">
        <ele>551.4</ele>
        <time>2010-01-15T13:03:09Z</time>
      </trkpt>
      <trkpt lat="38.145380" lon="-6.644950">
        <ele>556.3</ele>
        <time>2010-01-15T13:03:32Z</time>
      </trkpt>
      <trkpt lat="38.145170" lon="-6.644760">
        <ele>559.6</ele>
        <time>2010-01-15T13:03:53Z</time>
      </trkpt>
      <trkpt lat="38.144960" lon="-6.644500">
        <ele>559.6</ele>
        <time>2010-01-15T13:04:17Z</time>
      </trkpt>
      <trkpt lat="38.144850" lon="-6.644320">
        <ele>560.1</ele>
        <time>2010-01-15T13:04:32Z</time>
      </trkpt>
      <trkpt lat="38.144670" lon="-6.644030">
        <ele>561.1</ele>
        <time>2010-01-15T13:04:55Z</time>
      </trkpt>
      <trkpt lat="38.144530" lon="-6.643800">
        <ele>561.1</ele>
        <time>2010-01-15T13:05:14Z</time>
      </trkpt>
      <trkpt lat="38.144330" lon="-6.643540">
        <ele>562.0</ele>
        <time>2010-01-15T13:05:37Z</time>
      </trkpt>
      <trkpt lat="38.144170" lon="-6.643350">
        <ele>564.4</ele>
        <time>2010-01-15T13:05:56Z</time>
      </trkpt>
      <trkpt lat="38.143990" lon="-6.643110">
        <ele>566.8</ele>
        <time>2010-01-15T13:06:18Z</time>
      </trkpt>
      <trkpt lat="38.143830" lon="-6.642880">
        <ele>567.8</ele>
        <time>2010-01-15T13:06:39Z</time>
      </trkpt>
      <trkpt lat="38.143710" lon="-6.642640">
        <ele>569.7</ele>
        <time>2010-01-15T13:06:58Z</time>
      </trkpt>
      <trkpt lat="38.143570" lon="-6.642400">
        <ele>568.8</ele>
        <time>2010-01-15T13:07:18Z</time>
      </trkpt>
      <trkpt lat="38.143530" lon="-6.642350">
        <ele>568.8</ele>
        <time>2010-01-15T13:07:25Z</time>
      </trkpt>
      <trkpt lat="38.143510" lon="-6.642350">
        <ele>567.8</ele>
        <time>2010-01-15T13:07:26Z</time>
      </trkpt>
      <trkpt lat="38.143410" lon="-6.642190">
        <ele>568.3</ele>
        <time>2010-01-15T13:07:41Z</time>
      </trkpt>
      <trkpt lat="38.143310" lon="-6.642030">
        <ele>568.3</ele>
        <time>2010-01-15T13:07:57Z</time>
      </trkpt>
      <trkpt lat="38.143290" lon="-6.642000">
        <ele>568.3</ele>
        <time>2010-01-15T13:08:00Z</time>
      </trkpt>
      <trkpt lat="38.143270" lon="-6.641960">
        <ele>568.3</ele>
        <time>2010-01-15T13:08:04Z</time>
      </trkpt>
      <trkpt lat="38.143250" lon="-6.641930">
        <ele>567.8</ele>
        <time>2010-01-15T13:08:07Z</time>
      </trkpt>
      <trkpt lat="38.143210" lon="-6.641860">
        <ele>569.2</ele>
        <time>2010-01-15T13:08:14Z</time>
      </trkpt>
      <trkpt lat="38.143050" lon="-6.641580">
        <ele>568.8</ele>
        <time>2010-01-15T13:08:37Z</time>
      </trkpt>
      <trkpt lat="38.142940" lon="-6.641400">
        <ele>567.3</ele>
        <time>2010-01-15T13:08:53Z</time>
      </trkpt>
      <trkpt lat="38.142790" lon="-6.641160">
        <ele>567.8</ele>
        <time>2010-01-15T13:09:13Z</time>
      </trkpt>
      <trkpt lat="38.142650" lon="-6.640900">
        <ele>567.8</ele>
        <time>2010-01-15T13:09:33Z</time>
      </trkpt>
      <trkpt lat="38.142510" lon="-6.640660">
        <ele>566.8</ele>
        <time>2010-01-15T13:09:54Z</time>
      </trkpt>
      <trkpt lat="38.142370" lon="-6.640430">
        <ele>570.7</ele>
        <time>2010-01-15T13:10:15Z</time>
      </trkpt>
      <trkpt lat="38.142150" lon="-6.640160">
        <ele>570.7</ele>
        <time>2010-01-15T13:10:39Z</time>
      </trkpt>
      <trkpt lat="38.141950" lon="-6.639920">
        <ele>569.2</ele>
        <time>2010-01-15T13:11:02Z</time>
      </trkpt>
      <trkpt lat="38.141800" lon="-6.639760">
        <ele>569.2</ele>
        <time>2010-01-15T13:11:20Z</time>
      </trkpt>
      <trkpt lat="38.141620" lon="-6.639630">
        <ele>568.3</ele>
        <time>2010-01-15T13:11:39Z</time>
      </trkpt>
      <trkpt lat="38.141500" lon="-6.639510">
        <ele>567.8</ele>
        <time>2010-01-15T13:11:52Z</time>
      </trkpt>
      <trkpt lat="38.141410" lon="-6.639410">
        <ele>565.9</ele>
        <time>2010-01-15T13:12:13Z</time>
      </trkpt>
      <trkpt lat="38.141430" lon="-6.639500">
        <ele>563.9</ele>
        <time>2010-01-15T13:12:45Z</time>
      </trkpt>
      <trkpt lat="38.141420" lon="-6.639480">
        <ele>565.9</ele>
        <time>2010-01-15T13:13:15Z</time>
      </trkpt>
      <trkpt lat="38.141420" lon="-6.639470">
        <ele>565.4</ele>
        <time>2010-01-15T13:13:31Z</time>
      </trkpt>
      <trkpt lat="38.141370" lon="-6.639470">
        <ele>565.9</ele>
        <time>2010-01-15T13:13:43Z</time>
      </trkpt>
      <trkpt lat="38.141370" lon="-6.639470">
        <ele>566.3</ele>
        <time>2010-01-15T13:13:47Z</time>
      </trkpt>
      <trkpt lat="38.141430" lon="-6.639520">
        <ele>567.8</ele>
        <time>2010-01-15T13:14:02Z</time>
      </trkpt>
      <trkpt lat="38.141430" lon="-6.639510">
        <ele>566.8</ele>
        <time>2010-01-15T13:14:07Z</time>
      </trkpt>
      <trkpt lat="38.141330" lon="-6.639490">
        <ele>565.9</ele>
        <time>2010-01-15T13:14:20Z</time>
      </trkpt>
      <trkpt lat="38.141150" lon="-6.639420">
        <ele>564.4</ele>
        <time>2010-01-15T13:14:36Z</time>
      </trkpt>
      <trkpt lat="38.140900" lon="-6.639400">
        <ele>563.9</ele>
        <time>2010-01-15T13:14:56Z</time>
      </trkpt>
      <trkpt lat="38.140650" lon="-6.639380">
        <ele>563.9</ele>
        <time>2010-01-15T13:15:15Z</time>
      </trkpt>
      <trkpt lat="38.140310" lon="-6.639390">
        <ele>563.0</ele>
        <time>2010-01-15T13:15:41Z</time>
      </trkpt>
      <trkpt lat="38.140020" lon="-6.639400">
        <ele>562.5</ele>
        <time>2010-01-15T13:16:03Z</time>
      </trkpt>
      <trkpt lat="38.139760" lon="-6.639410">
        <ele>562.5</ele>
        <time>2010-01-15T13:16:25Z</time>
      </trkpt>
      <trkpt lat="38.139480" lon="-6.639400">
        <ele>563.0</ele>
        <time>2010-01-15T13:16:47Z</time>
      </trkpt>
      <trkpt lat="38.139260" lon="-6.639420">
        <ele>564.4</ele>
        <time>2010-01-15T13:17:04Z</time>
      </trkpt>
      <trkpt lat="38.139030" lon="-6.639440">
        <ele>563.5</ele>
        <time>2010-01-15T13:17:23Z</time>
      </trkpt>
      <trkpt lat="38.138780" lon="-6.639450">
        <ele>565.4</ele>
        <time>2010-01-15T13:17:42Z</time>
      </trkpt>
      <trkpt lat="38.138600" lon="-6.639550">
        <ele>566.8</ele>
        <time>2010-01-15T13:18:01Z</time>
      </trkpt>
      <trkpt lat="38.138390" lon="-6.639600">
        <ele>566.8</ele>
        <time>2010-01-15T13:18:17Z</time>
      </trkpt>
      <trkpt lat="38.138240" lon="-6.639650">
        <ele>566.3</ele>
        <time>2010-01-15T13:18:31Z</time>
      </trkpt>
      <trkpt lat="38.138040" lon="-6.639720">
        <ele>566.3</ele>
        <time>2010-01-15T13:18:48Z</time>
      </trkpt>
      <trkpt lat="38.137840" lon="-6.639790">
        <ele>565.9</ele>
        <time>2010-01-15T13:19:03Z</time>
      </trkpt>
      <trkpt lat="38.137850" lon="-6.639760">
        <ele>564.9</ele>
        <time>2010-01-15T13:19:12Z</time>
      </trkpt>
      <trkpt lat="38.137750" lon="-6.639800">
        <ele>567.3</ele>
        <time>2010-01-15T13:19:44Z</time>
      </trkpt>
      <trkpt lat="38.137510" lon="-6.639830">
        <ele>569.2</ele>
        <time>2010-01-15T13:20:08Z</time>
      </trkpt>
      <trkpt lat="38.137310" lon="-6.639820">
        <ele>570.2</ele>
        <time>2010-01-15T13:20:24Z</time>
      </trkpt>
      <trkpt lat="38.137070" lon="-6.639800">
        <ele>569.2</ele>
        <time>2010-01-15T13:20:43Z</time>
      </trkpt>
      <trkpt lat="38.136800" lon="-6.639770">
        <ele>567.8</ele>
        <time>2010-01-15T13:21:03Z</time>
      </trkpt>
      <trkpt lat="38.136530" lon="-6.639740">
        <ele>566.8</ele>
        <time>2010-01-15T13:21:25Z</time>
      </trkpt>
      <trkpt lat="38.136520" lon="-6.639730">
        <ele>566.8</ele>
        <time>2010-01-15T13:21:42Z</time>
      </trkpt>
      <trkpt lat="38.136540" lon="-6.639710">
        <ele>566.8</ele>
        <time>2010-01-15T13:21:45Z</time>
      </trkpt>
      <trkpt lat="38.136520" lon="-6.639630">
        <ele>565.4</ele>
        <time>2010-01-15T13:21:57Z</time>
      </trkpt>
      <trkpt lat="38.136510" lon="-6.639710">
        <ele>566.8</ele>
        <time>2010-01-15T13:22:17Z</time>
      </trkpt>
      <trkpt lat="38.136500" lon="-6.639710">
        <ele>567.3</ele>
        <time>2010-01-15T13:23:05Z</time>
      </trkpt>
      <trkpt lat="38.136510" lon="-6.639720">
        <ele>566.8</ele>
        <time>2010-01-15T13:23:28Z</time>
      </trkpt>
      <trkpt lat="38.136560" lon="-6.639740">
        <ele>569.2</ele>
        <time>2010-01-15T13:23:48Z</time>
      </trkpt>
      <trkpt lat="38.136520" lon="-6.639710">
        <ele>569.2</ele>
        <time>2010-01-15T13:24:00Z</time>
      </trkpt>
      <trkpt lat="38.136430" lon="-6.639710">
        <ele>567.3</ele>
        <time>2010-01-15T13:24:16Z</time>
      </trkpt>
      <trkpt lat="38.136410" lon="-6.639740">
        <ele>565.4</ele>
        <time>2010-01-15T13:24:49Z</time>
      </trkpt>
      <trkpt lat="38.136420" lon="-6.639730">
        <ele>570.2</ele>
        <time>2010-01-15T13:25:16Z</time>
      </trkpt>
      <trkpt lat="38.136460" lon="-6.639720">
        <ele>569.7</ele>
        <time>2010-01-15T13:25:29Z</time>
      </trkpt>
      <trkpt lat="38.136430" lon="-6.639720">
        <ele>567.8</ele>
        <time>2010-01-15T13:26:00Z</time>
      </trkpt>
      <trkpt lat="38.136360" lon="-6.639730">
        <ele>569.7</ele>
        <time>2010-01-15T13:26:20Z</time>
      </trkpt>
      <trkpt lat="38.136140" lon="-6.639650">
        <ele>568.8</ele>
        <time>2010-01-15T13:26:39Z</time>
      </trkpt>
      <trkpt lat="38.136110" lon="-6.639640">
        <ele>568.3</ele>
        <time>2010-01-15T13:26:42Z</time>
      </trkpt>
      <trkpt lat="38.135910" lon="-6.639480">
        <ele>567.3</ele>
        <time>2010-01-15T13:27:01Z</time>
      </trkpt>
      <trkpt lat="38.135690" lon="-6.639350">
        <ele>565.9</ele>
        <time>2010-01-15T13:27:20Z</time>
      </trkpt>
      <trkpt lat="38.135440" lon="-6.639220">
        <ele>565.4</ele>
        <time>2010-01-15T13:27:40Z</time>
      </trkpt>
      <trkpt lat="38.135180" lon="-6.639120">
        <ele>564.4</ele>
        <time>2010-01-15T13:28:03Z</time>
      </trkpt>
      <trkpt lat="38.134930" lon="-6.639020">
        <ele>562.0</ele>
        <time>2010-01-15T13:28:22Z</time>
      </trkpt>
      <trkpt lat="38.134660" lon="-6.639010">
        <ele>561.5</ele>
        <time>2010-01-15T13:28:42Z</time>
      </trkpt>
      <trkpt lat="38.134440" lon="-6.639020">
        <ele>561.5</ele>
        <time>2010-01-15T13:28:58Z</time>
      </trkpt>
      <trkpt lat="38.134140" lon="-6.638980">
        <ele>558.7</ele>
        <time>2010-01-15T13:29:23Z</time>
      </trkpt>
      <trkpt lat="38.133850" lon="-6.638880">
        <ele>560.1</ele>
        <time>2010-01-15T13:29:46Z</time>
      </trkpt>
      <trkpt lat="38.133640" lon="-6.638770">
        <ele>557.2</ele>
        <time>2010-01-15T13:30:03Z</time>
      </trkpt>
      <trkpt lat="38.133340" lon="-6.638620">
        <ele>556.3</ele>
        <time>2010-01-15T13:30:29Z</time>
      </trkpt>
      <trkpt lat="38.133080" lon="-6.638520">
        <ele>554.8</ele>
        <time>2010-01-15T13:30:50Z</time>
      </trkpt>
      <trkpt lat="38.132880" lon="-6.638460">
        <ele>554.3</ele>
        <time>2010-01-15T13:31:08Z</time>
      </trkpt>
      <trkpt lat="38.132810" lon="-6.638400">
        <ele>555.3</ele>
        <time>2010-01-15T13:31:24Z</time>
      </trkpt>
      <trkpt lat="38.132780" lon="-6.638420">
        <ele>554.8</ele>
        <time>2010-01-15T13:31:57Z</time>
      </trkpt>
      <trkpt lat="38.132760" lon="-6.638410">
        <ele>555.3</ele>
        <time>2010-01-15T13:31:59Z</time>
      </trkpt>
      <trkpt lat="38.132550" lon="-6.638360">
        <ele>553.9</ele>
        <time>2010-01-15T13:32:18Z</time>
      </trkpt>
      <trkpt lat="38.132400" lon="-6.638350">
        <ele>551.9</ele>
        <time>2010-01-15T13:32:32Z</time>
      </trkpt>
      <trkpt lat="38.132160" lon="-6.638420">
        <ele>552.9</ele>
        <time>2010-01-15T13:32:53Z</time>
      </trkpt>
      <trkpt lat="38.131940" lon="-6.638480">
        <ele>551.9</ele>
        <time>2010-01-15T13:33:12Z</time>
      </trkpt>
      <trkpt lat="38.131720" lon="-6.638570">
        <ele>551.0</ele>
        <time>2010-01-15T13:33:32Z</time>
      </trkpt>
      <trkpt lat="38.131550" lon="-6.638660">
        <ele>548.1</ele>
        <time>2010-01-15T13:33:49Z</time>
      </trkpt>
      <trkpt lat="38.131350" lon="-6.638740">
        <ele>546.2</ele>
        <time>2010-01-15T13:34:06Z</time>
      </trkpt>
      <trkpt lat="38.131130" lon="-6.638820">
        <ele>544.3</ele>
        <time>2010-01-15T13:34:28Z</time>
      </trkpt>
      <trkpt lat="38.130920" lon="-6.638890">
        <ele>541.8</ele>
        <time>2010-01-15T13:34:49Z</time>
      </trkpt>
      <trkpt lat="38.130780" lon="-6.638960">
        <ele>539.4</ele>
        <time>2010-01-15T13:35:07Z</time>
      </trkpt>
      <trkpt lat="38.130610" lon="-6.639000">
        <ele>539.4</ele>
        <time>2010-01-15T13:35:24Z</time>
      </trkpt>
      <trkpt lat="38.130550" lon="-6.639020">
        <ele>539.4</ele>
        <time>2010-01-15T13:35:30Z</time>
      </trkpt>
      <trkpt lat="38.130350" lon="-6.639070">
        <ele>538.5</ele>
        <time>2010-01-15T13:35:49Z</time>
      </trkpt>
      <trkpt lat="38.130220" lon="-6.639110">
        <ele>538.0</ele>
        <time>2010-01-15T13:36:01Z</time>
      </trkpt>
      <trkpt lat="38.130170" lon="-6.639110">
        <ele>538.0</ele>
        <time>2010-01-15T13:36:05Z</time>
      </trkpt>
      <trkpt lat="38.129900" lon="-6.639180">
        <ele>538.9</ele>
        <time>2010-01-15T13:36:25Z</time>
      </trkpt>
      <trkpt lat="38.129870" lon="-6.639200">
        <ele>538.5</ele>
        <time>2010-01-15T13:36:28Z</time>
      </trkpt>
      <trkpt lat="38.129670" lon="-6.639300">
        <ele>538.5</ele>
        <time>2010-01-15T13:36:44Z</time>
      </trkpt>
      <trkpt lat="38.129520" lon="-6.639320">
        <ele>540.9</ele>
        <time>2010-01-15T13:36:59Z</time>
      </trkpt>
      <trkpt lat="38.129350" lon="-6.639370">
        <ele>540.4</ele>
        <time>2010-01-15T13:37:15Z</time>
      </trkpt>
      <trkpt lat="38.129090" lon="-6.639380">
        <ele>540.9</ele>
        <time>2010-01-15T13:37:34Z</time>
      </trkpt>
      <trkpt lat="38.129070" lon="-6.639370">
        <ele>540.4</ele>
        <time>2010-01-15T13:37:37Z</time>
      </trkpt>
      <trkpt lat="38.128910" lon="-6.639290">
        <ele>542.3</ele>
        <time>2010-01-15T13:37:57Z</time>
      </trkpt>
      <trkpt lat="38.128900" lon="-6.639270">
        <ele>542.3</ele>
        <time>2010-01-15T13:37:58Z</time>
      </trkpt>
      <trkpt lat="38.128890" lon="-6.639260">
        <ele>543.3</ele>
        <time>2010-01-15T13:38:13Z</time>
      </trkpt>
      <trkpt lat="38.128890" lon="-6.639340">
        <ele>540.9</ele>
        <time>2010-01-15T13:38:27Z</time>
      </trkpt>
      <trkpt lat="38.128900" lon="-6.639310">
        <ele>540.4</ele>
        <time>2010-01-15T13:38:48Z</time>
      </trkpt>
      <trkpt lat="38.128880" lon="-6.639290">
        <ele>539.4</ele>
        <time>2010-01-15T13:39:18Z</time>
      </trkpt>
      <trkpt lat="38.128900" lon="-6.639290">
        <ele>540.9</ele>
        <time>2010-01-15T13:39:40Z</time>
      </trkpt>
      <trkpt lat="38.128920" lon="-6.639350">
        <ele>538.5</ele>
        <time>2010-01-15T13:39:57Z</time>
      </trkpt>
      <trkpt lat="38.128920" lon="-6.639340">
        <ele>538.0</ele>
        <time>2010-01-15T13:40:13Z</time>
      </trkpt>
      <trkpt lat="38.128910" lon="-6.639280">
        <ele>538.5</ele>
        <time>2010-01-15T13:40:17Z</time>
      </trkpt>
      <trkpt lat="38.128890" lon="-6.639200">
        <ele>538.0</ele>
        <time>2010-01-15T13:40:31Z</time>
      </trkpt>
      <trkpt lat="38.128880" lon="-6.638980">
        <ele>542.3</ele>
        <time>2010-01-15T13:40:50Z</time>
      </trkpt>
      <trkpt lat="38.128860" lon="-6.638710">
        <ele>539.4</ele>
        <time>2010-01-15T13:41:07Z</time>
      </trkpt>
      <trkpt lat="38.128840" lon="-6.638440">
        <ele>541.4</ele>
        <time>2010-01-15T13:41:26Z</time>
      </trkpt>
      <trkpt lat="38.128840" lon="-6.638450">
        <ele>538.9</ele>
        <time>2010-01-15T13:41:48Z</time>
      </trkpt>
      <trkpt lat="38.128800" lon="-6.638350">
        <ele>537.0</ele>
        <time>2010-01-15T13:42:07Z</time>
      </trkpt>
      <trkpt lat="38.128780" lon="-6.638240">
        <ele>538.9</ele>
        <time>2010-01-15T13:42:22Z</time>
      </trkpt>
      <trkpt lat="38.128770" lon="-6.638220">
        <ele>536.1</ele>
        <time>2010-01-15T13:42:46Z</time>
      </trkpt>
      <trkpt lat="38.128710" lon="-6.638020">
        <ele>535.1</ele>
        <time>2010-01-15T13:43:10Z</time>
      </trkpt>
      <trkpt lat="38.128700" lon="-6.637780">
        <ele>536.5</ele>
        <time>2010-01-15T13:43:29Z</time>
      </trkpt>
      <trkpt lat="38.128690" lon="-6.637570">
        <ele>538.9</ele>
        <time>2010-01-15T13:43:55Z</time>
      </trkpt>
      <trkpt lat="38.128730" lon="-6.637340">
        <ele>535.6</ele>
        <time>2010-01-15T13:44:14Z</time>
      </trkpt>
      <trkpt lat="38.128700" lon="-6.637280">
        <ele>535.6</ele>
        <time>2010-01-15T13:44:19Z</time>
      </trkpt>
      <trkpt lat="38.128710" lon="-6.637250">
        <ele>535.1</ele>
        <time>2010-01-15T13:44:22Z</time>
      </trkpt>
      <trkpt lat="38.128690" lon="-6.636740">
        <ele>540.9</ele>
        <time>2010-01-15T13:44:43Z</time>
      </trkpt>
      <trkpt lat="38.128650" lon="-6.636360">
        <ele>542.3</ele>
        <time>2010-01-15T13:45:01Z</time>
      </trkpt>
      <trkpt lat="38.128540" lon="-6.636210">
        <ele>538.5</ele>
        <time>2010-01-15T13:45:24Z</time>
      </trkpt>
      <trkpt lat="38.128490" lon="-6.636160">
        <ele>537.0</ele>
        <time>2010-01-15T13:45:40Z</time>
      </trkpt>
      <trkpt lat="38.128440" lon="-6.636100">
        <ele>533.7</ele>
        <time>2010-01-15T13:45:56Z</time>
      </trkpt>
      <trkpt lat="38.128390" lon="-6.635900">
        <ele>534.2</ele>
        <time>2010-01-15T13:46:19Z</time>
      </trkpt>
      <trkpt lat="38.128400" lon="-6.635860">
        <ele>533.2</ele>
        <time>2010-01-15T13:46:29Z</time>
      </trkpt>
      <trkpt lat="38.128340" lon="-6.635470">
        <ele>532.2</ele>
        <time>2010-01-15T13:46:53Z</time>
      </trkpt>
      <trkpt lat="38.128300" lon="-6.635350">
        <ele>531.3</ele>
        <time>2010-01-15T13:47:00Z</time>
      </trkpt>
      <trkpt lat="38.128160" lon="-6.635120">
        <ele>531.8</ele>
        <time>2010-01-15T13:47:16Z</time>
      </trkpt>
      <trkpt lat="38.128100" lon="-6.635110">
        <ele>530.8</ele>
        <time>2010-01-15T13:47:20Z</time>
      </trkpt>
      <trkpt lat="38.127890" lon="-6.634940">
        <ele>533.2</ele>
        <time>2010-01-15T13:47:42Z</time>
      </trkpt>
      <trkpt lat="38.127840" lon="-6.634910">
        <ele>533.7</ele>
        <time>2010-01-15T13:47:46Z</time>
      </trkpt>
      <trkpt lat="38.127800" lon="-6.634890">
        <ele>533.2</ele>
        <time>2010-01-15T13:47:48Z</time>
      </trkpt>
      <trkpt lat="38.127560" lon="-6.634800">
        <ele>533.7</ele>
        <time>2010-01-15T13:48:09Z</time>
      </trkpt>
      <trkpt lat="38.127330" lon="-6.634680">
        <ele>535.1</ele>
        <time>2010-01-15T13:48:30Z</time>
      </trkpt>
      <trkpt lat="38.127160" lon="-6.634540">
        <ele>534.6</ele>
        <time>2010-01-15T13:48:53Z</time>
      </trkpt>
      <trkpt lat="38.127080" lon="-6.634470">
        <ele>553.9</ele>
        <time>2010-01-15T13:49:08Z</time>
      </trkpt>
      <trkpt lat="38.126940" lon="-6.634340">
        <ele>548.1</ele>
        <time>2010-01-15T13:49:23Z</time>
      </trkpt>
      <trkpt lat="38.126870" lon="-6.634360">
        <ele>545.7</ele>
        <time>2010-01-15T13:50:22Z</time>
      </trkpt>
      <trkpt lat="38.126900" lon="-6.634390">
        <ele>538.9</ele>
        <time>2010-01-15T13:51:20Z</time>
      </trkpt>
      <trkpt lat="38.126860" lon="-6.634390">
        <ele>537.5</ele>
        <time>2010-01-15T13:52:10Z</time>
      </trkpt>
      <trkpt lat="38.126920" lon="-6.634390">
        <ele>537.5</ele>
        <time>2010-01-15T14:03:13Z</time>
      </trkpt>
      <trkpt lat="38.126950" lon="-6.634380">
        <ele>538.0</ele>
        <time>2010-01-15T14:03:27Z</time>
      </trkpt>
      <trkpt lat="38.126960" lon="-6.634390">
        <ele>538.0</ele>
        <time>2010-01-15T14:03:28Z</time>
      </trkpt>
      <trkpt lat="38.126980" lon="-6.634470">
        <ele>538.0</ele>
        <time>2010-01-15T14:03:41Z</time>
      </trkpt>
      <trkpt lat="38.127000" lon="-6.634500">
        <ele>538.5</ele>
        <time>2010-01-15T14:03:56Z</time>
      </trkpt>
      <trkpt lat="38.127160" lon="-6.634600">
        <ele>535.1</ele>
        <time>2010-01-15T14:04:11Z</time>
      </trkpt>
      <trkpt lat="38.127430" lon="-6.634710">
        <ele>533.2</ele>
        <time>2010-01-15T14:04:33Z</time>
      </trkpt>
      <trkpt lat="38.127780" lon="-6.634880">
        <ele>528.4</ele>
        <time>2010-01-15T14:05:00Z</time>
      </trkpt>
      <trkpt lat="38.128090" lon="-6.635120">
        <ele>526.9</ele>
        <time>2010-01-15T14:05:24Z</time>
      </trkpt>
      <trkpt lat="38.128260" lon="-6.635370">
        <ele>524.0</ele>
        <time>2010-01-15T14:05:43Z</time>
      </trkpt>
      <trkpt lat="38.128310" lon="-6.635770">
        <ele>522.1</ele>
        <time>2010-01-15T14:06:07Z</time>
      </trkpt>
      <trkpt lat="38.128440" lon="-6.636150">
        <ele>524.0</ele>
        <time>2010-01-15T14:06:29Z</time>
      </trkpt>
      <trkpt lat="38.128560" lon="-6.636440">
        <ele>524.0</ele>
        <time>2010-01-15T14:06:48Z</time>
      </trkpt>
      <trkpt lat="38.128650" lon="-6.636630">
        <ele>524.0</ele>
        <time>2010-01-15T14:07:04Z</time>
      </trkpt>
      <trkpt lat="38.128690" lon="-6.636670">
        <ele>525.5</ele>
        <time>2010-01-15T14:07:08Z</time>
      </trkpt>
      <trkpt lat="38.128700" lon="-6.636990">
        <ele>525.0</ele>
        <time>2010-01-15T14:07:26Z</time>
      </trkpt>
      <trkpt lat="38.128690" lon="-6.637360">
        <ele>526.0</ele>
        <time>2010-01-15T14:07:47Z</time>
      </trkpt>
      <trkpt lat="38.128670" lon="-6.637490">
        <ele>527.4</ele>
        <time>2010-01-15T14:08:06Z</time>
      </trkpt>
      <trkpt lat="38.128700" lon="-6.637740">
        <ele>531.8</ele>
        <time>2010-01-15T14:08:24Z</time>
      </trkpt>
      <trkpt lat="38.128750" lon="-6.638110">
        <ele>531.8</ele>
        <time>2010-01-15T14:08:44Z</time>
      </trkpt>
      <trkpt lat="38.128780" lon="-6.638290">
        <ele>530.3</ele>
        <time>2010-01-15T14:09:18Z</time>
      </trkpt>
      <trkpt lat="38.128780" lon="-6.638300">
        <ele>529.8</ele>
        <time>2010-01-15T14:09:19Z</time>
      </trkpt>
      <trkpt lat="38.128860" lon="-6.638530">
        <ele>532.2</ele>
        <time>2010-01-15T14:09:42Z</time>
      </trkpt>
      <trkpt lat="38.128890" lon="-6.638980">
        <ele>533.7</ele>
        <time>2010-01-15T14:10:05Z</time>
      </trkpt>
      <trkpt lat="38.128930" lon="-6.639320">
        <ele>535.6</ele>
        <time>2010-01-15T14:10:24Z</time>
      </trkpt>
      <trkpt lat="38.129200" lon="-6.639420">
        <ele>539.4</ele>
        <time>2010-01-15T14:10:41Z</time>
      </trkpt>
      <trkpt lat="38.129490" lon="-6.639390">
        <ele>537.5</ele>
        <time>2010-01-15T14:11:00Z</time>
      </trkpt>
      <trkpt lat="38.129590" lon="-6.639370">
        <ele>538.0</ele>
        <time>2010-01-15T14:11:16Z</time>
      </trkpt>
      <trkpt lat="38.129760" lon="-6.639290">
        <ele>540.9</ele>
        <time>2010-01-15T14:11:45Z</time>
      </trkpt>
      <trkpt lat="38.129940" lon="-6.639200">
        <ele>537.5</ele>
        <time>2010-01-15T14:12:00Z</time>
      </trkpt>
      <trkpt lat="38.130210" lon="-6.639130">
        <ele>539.4</ele>
        <time>2010-01-15T14:12:16Z</time>
      </trkpt>
      <trkpt lat="38.130430" lon="-6.639080">
        <ele>538.0</ele>
        <time>2010-01-15T14:12:32Z</time>
      </trkpt>
      <trkpt lat="38.130530" lon="-6.639060">
        <ele>535.6</ele>
        <time>2010-01-15T14:12:45Z</time>
      </trkpt>
      <trkpt lat="38.130610" lon="-6.639050">
        <ele>534.6</ele>
        <time>2010-01-15T14:12:59Z</time>
      </trkpt>
      <trkpt lat="38.130870" lon="-6.638970">
        <ele>534.6</ele>
        <time>2010-01-15T14:13:19Z</time>
      </trkpt>
      <trkpt lat="38.131060" lon="-6.638890">
        <ele>535.6</ele>
        <time>2010-01-15T14:13:35Z</time>
      </trkpt>
      <trkpt lat="38.131330" lon="-6.638780">
        <ele>538.0</ele>
        <time>2010-01-15T14:13:57Z</time>
      </trkpt>
      <trkpt lat="38.131630" lon="-6.638660">
        <ele>540.4</ele>
        <time>2010-01-15T14:14:20Z</time>
      </trkpt>
      <trkpt lat="38.131910" lon="-6.638540">
        <ele>540.9</ele>
        <time>2010-01-15T14:14:42Z</time>
      </trkpt>
      <trkpt lat="38.132180" lon="-6.638430">
        <ele>542.8</ele>
        <time>2010-01-15T14:15:03Z</time>
      </trkpt>
      <trkpt lat="38.132360" lon="-6.638380">
        <ele>544.7</ele>
        <time>2010-01-15T14:15:18Z</time>
      </trkpt>
      <trkpt lat="38.132630" lon="-6.638420">
        <ele>545.7</ele>
        <time>2010-01-15T14:15:37Z</time>
      </trkpt>
      <trkpt lat="38.132890" lon="-6.638480">
        <ele>549.5</ele>
        <time>2010-01-15T14:15:53Z</time>
      </trkpt>
      <trkpt lat="38.133160" lon="-6.638580">
        <ele>551.0</ele>
        <time>2010-01-15T14:16:12Z</time>
      </trkpt>
      <trkpt lat="38.133370" lon="-6.638670">
        <ele>551.0</ele>
        <time>2010-01-15T14:16:31Z</time>
      </trkpt>
      <trkpt lat="38.133430" lon="-6.638690">
        <ele>551.0</ele>
        <time>2010-01-15T14:16:35Z</time>
      </trkpt>
      <trkpt lat="38.133530" lon="-6.638710">
        <ele>552.4</ele>
        <time>2010-01-15T14:16:44Z</time>
      </trkpt>
      <trkpt lat="38.133530" lon="-6.638680">
        <ele>557.2</ele>
        <time>2010-01-15T14:17:06Z</time>
      </trkpt>
      <trkpt lat="38.133520" lon="-6.638710">
        <ele>553.4</ele>
        <time>2010-01-15T14:17:22Z</time>
      </trkpt>
      <trkpt lat="38.133750" lon="-6.638860">
        <ele>555.8</ele>
        <time>2010-01-15T14:17:42Z</time>
      </trkpt>
      <trkpt lat="38.134060" lon="-6.638980">
        <ele>559.2</ele>
        <time>2010-01-15T14:18:04Z</time>
      </trkpt>
      <trkpt lat="38.134370" lon="-6.639060">
        <ele>558.2</ele>
        <time>2010-01-15T14:18:26Z</time>
      </trkpt>
      <trkpt lat="38.134710" lon="-6.639070">
        <ele>554.8</ele>
        <time>2010-01-15T14:18:50Z</time>
      </trkpt>
      <trkpt lat="38.134990" lon="-6.639080">
        <ele>555.8</ele>
        <time>2010-01-15T14:19:10Z</time>
      </trkpt>
      <trkpt lat="38.135300" lon="-6.639210">
        <ele>555.3</ele>
        <time>2010-01-15T14:19:33Z</time>
      </trkpt>
      <trkpt lat="38.135600" lon="-6.639350">
        <ele>556.7</ele>
        <time>2010-01-15T14:19:53Z</time>
      </trkpt>
      <trkpt lat="38.135900" lon="-6.639510">
        <ele>559.6</ele>
        <time>2010-01-15T14:20:15Z</time>
      </trkpt>
      <trkpt lat="38.136300" lon="-6.639700">
        <ele>563.0</ele>
        <time>2010-01-15T14:20:42Z</time>
      </trkpt>
      <trkpt lat="38.136440" lon="-6.639720">
        <ele>564.4</ele>
        <time>2010-01-15T14:20:51Z</time>
      </trkpt>
      <trkpt lat="38.136480" lon="-6.639700">
        <ele>563.5</ele>
        <time>2010-01-15T14:20:56Z</time>
      </trkpt>
      <trkpt lat="38.136540" lon="-6.639690">
        <ele>563.0</ele>
        <time>2010-01-15T14:21:01Z</time>
      </trkpt>
      <trkpt lat="38.136610" lon="-6.639740">
        <ele>563.0</ele>
        <time>2010-01-15T14:21:05Z</time>
      </trkpt>
      <trkpt lat="38.136930" lon="-6.639810">
        <ele>564.9</ele>
        <time>2010-01-15T14:21:28Z</time>
      </trkpt>
      <trkpt lat="38.137230" lon="-6.639850">
        <ele>564.9</ele>
        <time>2010-01-15T14:21:48Z</time>
      </trkpt>
      <trkpt lat="38.137580" lon="-6.639840">
        <ele>564.9</ele>
        <time>2010-01-15T14:22:14Z</time>
      </trkpt>
      <trkpt lat="38.137910" lon="-6.639780">
        <ele>563.5</ele>
        <time>2010-01-15T14:22:37Z</time>
      </trkpt>
      <trkpt lat="38.138190" lon="-6.639750">
        <ele>565.4</ele>
        <time>2010-01-15T14:22:53Z</time>
      </trkpt>
      <trkpt lat="38.138530" lon="-6.639620">
        <ele>565.4</ele>
        <time>2010-01-15T14:23:16Z</time>
      </trkpt>
      <trkpt lat="38.138780" lon="-6.639530">
        <ele>562.5</ele>
        <time>2010-01-15T14:23:36Z</time>
      </trkpt>
      <trkpt lat="38.139100" lon="-6.639470">
        <ele>562.0</ele>
        <time>2010-01-15T14:23:56Z</time>
      </trkpt>
      <trkpt lat="38.139420" lon="-6.639440">
        <ele>559.6</ele>
        <time>2010-01-15T14:24:18Z</time>
      </trkpt>
      <trkpt lat="38.139720" lon="-6.639440">
        <ele>559.2</ele>
        <time>2010-01-15T14:24:38Z</time>
      </trkpt>
      <trkpt lat="38.140090" lon="-6.639420">
        <ele>558.2</ele>
        <time>2010-01-15T14:25:03Z</time>
      </trkpt>
      <trkpt lat="38.140400" lon="-6.639440">
        <ele>557.7</ele>
        <time>2010-01-15T14:25:23Z</time>
      </trkpt>
      <trkpt lat="38.140760" lon="-6.639420">
        <ele>558.2</ele>
        <time>2010-01-15T14:25:47Z</time>
      </trkpt>
      <trkpt lat="38.141120" lon="-6.639450">
        <ele>558.7</ele>
        <time>2010-01-15T14:26:13Z</time>
      </trkpt>
      <trkpt lat="38.141410" lon="-6.639530">
        <ele>559.6</ele>
        <time>2010-01-15T14:26:33Z</time>
      </trkpt>
      <trkpt lat="38.141710" lon="-6.639740">
        <ele>563.0</ele>
        <time>2010-01-15T14:26:55Z</time>
      </trkpt>
      <trkpt lat="38.142140" lon="-6.640190">
        <ele>566.8</ele>
        <time>2010-01-15T14:27:31Z</time>
      </trkpt>
      <trkpt lat="38.142340" lon="-6.640410">
        <ele>567.3</ele>
        <time>2010-01-15T14:27:49Z</time>
      </trkpt>
      <trkpt lat="38.142400" lon="-6.640470">
        <ele>568.3</ele>
        <time>2010-01-15T14:27:54Z</time>
      </trkpt>
      <trkpt lat="38.142590" lon="-6.640810">
        <ele>567.8</ele>
        <time>2010-01-15T14:28:17Z</time>
      </trkpt>
      <trkpt lat="38.142760" lon="-6.641120">
        <ele>566.8</ele>
        <time>2010-01-15T14:28:37Z</time>
      </trkpt>
      <trkpt lat="38.142940" lon="-6.641400">
        <ele>564.4</ele>
        <time>2010-01-15T14:28:55Z</time>
      </trkpt>
      <trkpt lat="38.143130" lon="-6.641710">
        <ele>565.4</ele>
        <time>2010-01-15T14:29:15Z</time>
      </trkpt>
      <trkpt lat="38.143250" lon="-6.641990">
        <ele>559.6</ele>
        <time>2010-01-15T14:29:33Z</time>
      </trkpt>
      <trkpt lat="38.143430" lon="-6.642300">
        <ele>561.5</ele>
        <time>2010-01-15T14:29:53Z</time>
      </trkpt>
      <trkpt lat="38.143600" lon="-6.642540">
        <ele>562.0</ele>
        <time>2010-01-15T14:30:10Z</time>
      </trkpt>
      <trkpt lat="38.143780" lon="-6.642870">
        <ele>562.5</ele>
        <time>2010-01-15T14:30:31Z</time>
      </trkpt>
      <trkpt lat="38.143980" lon="-6.643140">
        <ele>564.4</ele>
        <time>2010-01-15T14:30:48Z</time>
      </trkpt>
      <trkpt lat="38.144150" lon="-6.643400">
        <ele>560.1</ele>
        <time>2010-01-15T14:31:07Z</time>
      </trkpt>
      <trkpt lat="38.144380" lon="-6.643690">
        <ele>558.7</ele>
        <time>2010-01-15T14:31:27Z</time>
      </trkpt>
      <trkpt lat="38.144630" lon="-6.643960">
        <ele>559.6</ele>
        <time>2010-01-15T14:31:48Z</time>
      </trkpt>
      <trkpt lat="38.144830" lon="-6.644310">
        <ele>558.2</ele>
        <time>2010-01-15T14:32:09Z</time>
      </trkpt>
      <trkpt lat="38.144990" lon="-6.644580">
        <ele>557.7</ele>
        <time>2010-01-15T14:32:25Z</time>
      </trkpt>
      <trkpt lat="38.145250" lon="-6.644870">
        <ele>555.8</ele>
        <time>2010-01-15T14:32:48Z</time>
      </trkpt>
      <trkpt lat="38.145500" lon="-6.645070">
        <ele>555.8</ele>
        <time>2010-01-15T14:33:07Z</time>
      </trkpt>
      <trkpt lat="38.145730" lon="-6.645310">
        <ele>555.8</ele>
        <time>2010-01-15T14:33:26Z</time>
      </trkpt>
      <trkpt lat="38.145830" lon="-6.645430">
        <ele>555.3</ele>
        <time>2010-01-15T14:33:34Z</time>
      </trkpt>
      <trkpt lat="38.146020" lon="-6.645650">
        <ele>553.4</ele>
        <time>2010-01-15T14:33:52Z</time>
      </trkpt>
      <trkpt lat="38.146250" lon="-6.645930">
        <ele>549.5</ele>
        <time>2010-01-15T14:34:15Z</time>
      </trkpt>
      <trkpt lat="38.146540" lon="-6.646280">
        <ele>548.6</ele>
        <time>2010-01-15T14:34:39Z</time>
      </trkpt>
      <trkpt lat="38.146790" lon="-6.646640">
        <ele>547.1</ele>
        <time>2010-01-15T14:35:06Z</time>
      </trkpt>
      <trkpt lat="38.147030" lon="-6.646890">
        <ele>545.7</ele>
        <time>2010-01-15T14:35:25Z</time>
      </trkpt>
      <trkpt lat="38.147230" lon="-6.647170">
        <ele>544.7</ele>
        <time>2010-01-15T14:35:45Z</time>
      </trkpt>
      <trkpt lat="38.147440" lon="-6.647420">
        <ele>542.3</ele>
        <time>2010-01-15T14:36:05Z</time>
      </trkpt>
      <trkpt lat="38.147680" lon="-6.647680">
        <ele>538.9</ele>
        <time>2010-01-15T14:36:27Z</time>
      </trkpt>
      <trkpt lat="38.147890" lon="-6.648000">
        <ele>538.0</ele>
        <time>2010-01-15T14:36:47Z</time>
      </trkpt>
      <trkpt lat="38.148000" lon="-6.648240">
        <ele>536.1</ele>
        <time>2010-01-15T14:37:05Z</time>
      </trkpt>
      <trkpt lat="38.148210" lon="-6.648370">
        <ele>536.5</ele>
        <time>2010-01-15T14:37:20Z</time>
      </trkpt>
      <trkpt lat="38.148500" lon="-6.648440">
        <ele>536.1</ele>
        <time>2010-01-15T14:37:45Z</time>
      </trkpt>
      <trkpt lat="38.148450" lon="-6.648380">
        <ele>538.0</ele>
        <time>2010-01-15T14:38:34Z</time>
      </trkpt>
      <trkpt lat="38.148440" lon="-6.648390">
        <ele>535.6</ele>
        <time>2010-01-15T14:39:05Z</time>
      </trkpt>
      <trkpt lat="38.148570" lon="-6.648450">
        <ele>537.0</ele>
        <time>2010-01-15T14:39:31Z</time>
      </trkpt>
      <trkpt lat="38.148860" lon="-6.648690">
        <ele>538.5</ele>
        <time>2010-01-15T14:39:54Z</time>
      </trkpt>
      <trkpt lat="38.149130" lon="-6.648900">
        <ele>540.4</ele>
        <time>2010-01-15T14:40:14Z</time>
      </trkpt>
      <trkpt lat="38.149380" lon="-6.649150">
        <ele>541.4</ele>
        <time>2010-01-15T14:40:35Z</time>
      </trkpt>
      <trkpt lat="38.149630" lon="-6.649400">
        <ele>541.8</ele>
        <time>2010-01-15T14:40:57Z</time>
      </trkpt>
      <trkpt lat="38.149960" lon="-6.649630">
        <ele>540.9</ele>
        <time>2010-01-15T14:41:23Z</time>
      </trkpt>
      <trkpt lat="38.150340" lon="-6.649760">
        <ele>539.9</ele>
        <time>2010-01-15T14:41:48Z</time>
      </trkpt>
      <trkpt lat="38.150770" lon="-6.649850">
        <ele>540.4</ele>
        <time>2010-01-15T14:42:18Z</time>
      </trkpt>
      <trkpt lat="38.151210" lon="-6.649960">
        <ele>542.3</ele>
        <time>2010-01-15T14:42:46Z</time>
      </trkpt>
      <trkpt lat="38.151590" lon="-6.650080">
        <ele>543.8</ele>
        <time>2010-01-15T14:43:12Z</time>
      </trkpt>
      <trkpt lat="38.151920" lon="-6.650200">
        <ele>546.7</ele>
        <time>2010-01-15T14:43:35Z</time>
      </trkpt>
      <trkpt lat="38.152150" lon="-6.650310">
        <ele>547.1</ele>
        <time>2010-01-15T14:43:53Z</time>
      </trkpt>
      <trkpt lat="38.152390" lon="-6.650470">
        <ele>548.6</ele>
        <time>2010-01-15T14:44:13Z</time>
      </trkpt>
      <trkpt lat="38.152640" lon="-6.650670">
        <ele>547.6</ele>
        <time>2010-01-15T14:44:36Z</time>
      </trkpt>
      <trkpt lat="38.152930" lon="-6.650920">
        <ele>553.9</ele>
        <time>2010-01-15T14:45:01Z</time>
      </trkpt>
      <trkpt lat="38.153050" lon="-6.650990">
        <ele>554.3</ele>
        <time>2010-01-15T14:45:31Z</time>
      </trkpt>
      <trkpt lat="38.153200" lon="-6.651130">
        <ele>557.7</ele>
        <time>2010-01-15T14:45:47Z</time>
      </trkpt>
      <trkpt lat="38.153410" lon="-6.651300">
        <ele>560.6</ele>
        <time>2010-01-15T14:46:08Z</time>
      </trkpt>
      <trkpt lat="38.153730" lon="-6.651370">
        <ele>562.5</ele>
        <time>2010-01-15T14:46:29Z</time>
      </trkpt>
      <trkpt lat="38.154020" lon="-6.651390">
        <ele>563.9</ele>
        <time>2010-01-15T14:46:48Z</time>
      </trkpt>
      <trkpt lat="38.154330" lon="-6.651450">
        <ele>566.8</ele>
        <time>2010-01-15T14:47:10Z</time>
      </trkpt>
      <trkpt lat="38.154680" lon="-6.651590">
        <ele>566.8</ele>
        <time>2010-01-15T14:47:34Z</time>
      </trkpt>
      <trkpt lat="38.155050" lon="-6.651760">
        <ele>567.3</ele>
        <time>2010-01-15T14:48:00Z</time>
      </trkpt>
      <trkpt lat="38.155430" lon="-6.651890">
        <ele>566.3</ele>
        <time>2010-01-15T14:48:24Z</time>
      </trkpt>
      <trkpt lat="38.155770" lon="-6.652050">
        <ele>566.8</ele>
        <time>2010-01-15T14:48:47Z</time>
      </trkpt>
      <trkpt lat="38.156020" lon="-6.652170">
        <ele>564.9</ele>
        <time>2010-01-15T14:49:06Z</time>
      </trkpt>
      <trkpt lat="38.156320" lon="-6.652310">
        <ele>565.4</ele>
        <time>2010-01-15T14:49:27Z</time>
      </trkpt>
      <trkpt lat="38.156630" lon="-6.652460">
        <ele>565.4</ele>
        <time>2010-01-15T14:49:50Z</time>
      </trkpt>
      <trkpt lat="38.156940" lon="-6.652590">
        <ele>564.4</ele>
        <time>2010-01-15T14:50:15Z</time>
      </trkpt>
      <trkpt lat="38.157260" lon="-6.652750">
        <ele>565.4</ele>
        <time>2010-01-15T14:50:39Z</time>
      </trkpt>
      <trkpt lat="38.157610" lon="-6.652930">
        <ele>564.4</ele>
        <time>2010-01-15T14:51:03Z</time>
      </trkpt>
      <trkpt lat="38.157960" lon="-6.653150">
        <ele>564.9</ele>
        <time>2010-01-15T14:51:30Z</time>
      </trkpt>
      <trkpt lat="38.158320" lon="-6.653390">
        <ele>565.9</ele>
        <time>2010-01-15T14:51:57Z</time>
      </trkpt>
      <trkpt lat="38.158670" lon="-6.653580">
        <ele>565.4</ele>
        <time>2010-01-15T14:52:24Z</time>
      </trkpt>
      <trkpt lat="38.159270" lon="-6.653890">
        <ele>564.9</ele>
        <time>2010-01-15T14:53:10Z</time>
      </trkpt>
      <trkpt lat="38.159570" lon="-6.654010">
        <ele>564.4</ele>
        <time>2010-01-15T14:53:32Z</time>
      </trkpt>
      <trkpt lat="38.159910" lon="-6.654010">
        <ele>564.4</ele>
        <time>2010-01-15T14:53:56Z</time>
      </trkpt>
      <trkpt lat="38.160290" lon="-6.654030">
        <ele>563.9</ele>
        <time>2010-01-15T14:54:20Z</time>
      </trkpt>
      <trkpt lat="38.160610" lon="-6.654040">
        <ele>564.9</ele>
        <time>2010-01-15T14:54:43Z</time>
      </trkpt>
      <trkpt lat="38.160980" lon="-6.654070">
        <ele>564.9</ele>
        <time>2010-01-15T14:55:08Z</time>
      </trkpt>
      <trkpt lat="38.161220" lon="-6.654070">
        <ele>563.5</ele>
        <time>2010-01-15T14:55:28Z</time>
      </trkpt>
      <trkpt lat="38.161210" lon="-6.654070">
        <ele>563.5</ele>
        <time>2010-01-15T14:55:47Z</time>
      </trkpt>
      <trkpt lat="38.161330" lon="-6.654110">
        <ele>563.5</ele>
        <time>2010-01-15T14:56:03Z</time>
      </trkpt>
      <trkpt lat="38.161570" lon="-6.654140">
        <ele>563.0</ele>
        <time>2010-01-15T14:56:22Z</time>
      </trkpt>
      <trkpt lat="38.161880" lon="-6.654180">
        <ele>567.3</ele>
        <time>2010-01-15T14:56:46Z</time>
      </trkpt>
      <trkpt lat="38.162280" lon="-6.654190">
        <ele>568.8</ele>
        <time>2010-01-15T14:57:10Z</time>
      </trkpt>
      <trkpt lat="38.162670" lon="-6.654240">
        <ele>569.2</ele>
        <time>2010-01-15T14:57:39Z</time>
      </trkpt>
      <trkpt lat="38.162980" lon="-6.654270">
        <ele>571.7</ele>
        <time>2010-01-15T14:58:02Z</time>
      </trkpt>
      <trkpt lat="38.163120" lon="-6.654260">
        <ele>571.7</ele>
        <time>2010-01-15T14:58:14Z</time>
      </trkpt>
      <trkpt lat="38.163120" lon="-6.654260">
        <ele>574.5</ele>
        <time>2010-01-15T14:58:30Z</time>
      </trkpt>
      <trkpt lat="38.163120" lon="-6.654180">
        <ele>574.0</ele>
        <time>2010-01-15T14:59:36Z</time>
      </trkpt>
      <trkpt lat="38.163190" lon="-6.654200">
        <ele>572.6</ele>
        <time>2010-01-15T14:59:56Z</time>
      </trkpt>
      <trkpt lat="38.163390" lon="-6.654220">
        <ele>574.0</ele>
        <time>2010-01-15T15:00:18Z</time>
      </trkpt>
      <trkpt lat="38.163590" lon="-6.654220">
        <ele>572.6</ele>
        <time>2010-01-15T15:00:34Z</time>
      </trkpt>
      <trkpt lat="38.163630" lon="-6.654170">
        <ele>573.1</ele>
        <time>2010-01-15T15:00:54Z</time>
      </trkpt>
      <trkpt lat="38.163650" lon="-6.654170">
        <ele>572.1</ele>
        <time>2010-01-15T15:01:20Z</time>
      </trkpt>
      <trkpt lat="38.163650" lon="-6.654180">
        <ele>574.0</ele>
        <time>2010-01-15T15:01:28Z</time>
      </trkpt>
    </trkseg>
  </trk></gpx>